Astoria Regional Airport
KAST : now visible

Airfield :











YOU CAN JOIN US ON...

 
LOGIN :

Register | Disclaimer

   EN    FR    IT 

 









Legend :    VFR   Marginal VFR   IFR   Intensive IFR   Very Intensive IFR
Visi :
Ceiling :
>= 8 km
>= 3000ft
5 to 8 km
1000 to 3000 ft
1500m to 5 km
500 to 1000 ft
800 to 1500m
200 to 500 ft
< 800m
< 200 ft
Symbols :   Thunderstorms  Fog  Heavy snow  Heavy precipitations  Wind > 20 kt






- Airport Elevation : 15 ft


KAST - Astoria Regional

CURRENT METAR :
  • 271305Z AUTO 00000KT 1/4SM FG VV002 07/07 A3012 RMK AO2 T00720072

EXPIRED METARs :
  • 271255Z AUTO 00000KT 3/4SM BR OVC002 08/07 A3012 RMK AO2 VIS 1/4 RWY 08 SLP198 T00780072
  • 271218Z AUTO 14003KT 10SM BKN002 07/06 A3011 RMK AO2 T00720061
  • 271209Z AUTO 15003KT 10SM SCT002 07/06 A3011 RMK AO2 T00670056
  • 271155Z AUTO 00000KT 10SM CLR 07/06 A3011 RMK AO2 VIS 1 1/4 RWY 08 SLP196 T00670061 10122 20067 56006
  • 271055Z AUTO 00000KT 10SM CLR 07/07 A3011 RMK AO2 SLP197 T00720067
  • 271028Z AUTO 08003KT 3SM BR CLR 07/07 A3012 RMK AO2 VIS 3/4 RWY 08 T00720067

TAF KAST
Valid from the 27 at 12:00 until the 28 at 12:00 UTC


271141Z 2712/2812 VRB03KT P6SM FEW004
TEMPO 2712/2716 1SM BR BKN004
FM271700 32010KT P6SM FEW250
FM272100 32013G20KT P6SM FEW250
FM280200 32010KT P6SM SCT250
FM280400 32005KT P6SM BKN250
KZSE FIR / North America



MET'MAP, your aeronautical weather chart ! - Copyright ORBIFLY December 2007 - Disclaimer

ORBIFLY MET'MAP TEAM :

Programming & Development : Alexandra Zaïnal
Concept & original design : Baudouin d'Aumeries
Assistance for programming : Marc-Olivier Méhu
Technical & hardware support : Manuel Goepfert

Contact : metmap@orbifly.com




SOURCES & CREDITS :

   NOAA       Earth
Advisory